createdAt,value
2019-05-02T00:02:24.082Z,48.90
2019-05-02T00:04:51.059Z,50.70
2019-05-02T00:07:21.795Z,46.57
2019-05-02T00:10:12.056Z,47.17
2019-05-02T00:12:40.687Z,47.40
2019-05-02T00:15:09.233Z,48.70
2019-05-02T00:17:37.807Z,45.90
2019-05-02T00:20:10.787Z,48.13
2019-05-02T00:34:44.720Z,48.17
2019-05-02T00:37:18.756Z,48.33
2019-05-02T00:55:36.787Z,46.30
2019-05-02T00:58:09.977Z,51.43
2019-05-02T01:04:29.823Z,50.90
2019-05-02T01:07:20.374Z,49.70
2019-05-02T01:19:03.847Z,49.60
2019-05-02T01:21:33.967Z,49.77
2019-05-02T01:24:41.648Z,52.00
2019-05-02T01:27:11.943Z,53.83
2019-05-02T01:29:42.340Z,52.37
2019-05-02T01:32:15.909Z,50.80
2019-05-02T01:34:54.489Z,49.10
2019-05-02T01:37:58.323Z,52.63
2019-05-02T01:40:37.939Z,52.00
2019-05-02T01:49:47.321Z,49.87
2019-05-02T01:52:23.433Z,53.90
2019-05-02T01:54:56.055Z,51.67
2019-05-02T01:57:31.227Z,51.30
2019-05-02T02:00:04.269Z,53.13
2019-05-02T02:02:44.880Z,51.40
2019-05-02T02:05:15.105Z,51.07
2019-05-02T02:07:43.992Z,51.30
2019-05-02T02:10:19.882Z,52.30
2019-05-02T02:13:15.049Z,48.50
2019-05-02T02:22:46.958Z,50.37
2019-05-02T02:32:02.350Z,48.47
2019-05-02T02:34:39.069Z,49.20
2019-05-02T02:44:23.277Z,49.13
2019-05-02T03:00:24.368Z,46.53
2019-05-02T03:03:20.983Z,49.17
2019-05-02T03:05:51.600Z,43.47
2019-05-02T03:08:53.876Z,45.70
2019-05-02T03:25:09.374Z,45.20
2019-05-02T03:53:08.957Z,46.00
2019-05-02T04:06:42.978Z,45.77
2019-05-02T04:09:23.515Z,46.30
2019-05-02T04:11:55.647Z,47.17
2019-05-02T04:14:37.532Z,47.70
2019-05-02T04:16:57.312Z,49.80
2019-05-02T04:19:34.931Z,49.53
2019-05-02T04:22:08.922Z,48.63
2019-05-02T04:24:35.665Z,51.07
2019-05-02T04:27:04.542Z,46.70
2019-05-02T04:29:33.353Z,50.00
2019-05-02T04:32:04.328Z,48.47
2019-05-02T04:34:32.529Z,48.67
2019-05-02T04:37:04.020Z,48.47
2019-05-02T04:39:31.364Z,49.07
2019-05-02T04:42:05.218Z,50.43
2019-05-02T04:44:40.900Z,54.23
2019-05-02T04:47:15.099Z,49.27
2019-05-02T04:49:35.697Z,50.40
2019-05-02T04:52:06.931Z,51.43
2019-05-02T04:54:32.343Z,50.80
2019-05-02T04:57:02.388Z,48.30
2019-05-02T04:59:33.245Z,52.43
2019-05-02T05:02:01.850Z,50.37
2019-05-02T05:04:33.316Z,54.27
2019-05-02T05:07:01.328Z,53.17
2019-05-02T05:09:30.205Z,51.40
2019-05-02T05:12:02.503Z,52.03
2019-05-02T05:14:31.434Z,52.90
2019-05-02T05:16:59.482Z,54.80
2019-05-02T05:19:32.473Z,53.30
2019-05-02T05:22:04.494Z,54.87
2019-05-02T05:24:38.548Z,55.40
2019-05-02T05:27:08.282Z,56.33
2019-05-02T05:29:37.487Z,55.53
2019-05-02T05:32:09.888Z,52.80
2019-05-02T05:34:37.997Z,53.57
2019-05-02T05:37:09.341Z,54.33
2019-05-02T05:39:38.146Z,57.17
2019-05-02T05:42:08.393Z,53.40
2019-05-02T05:44:37.477Z,56.23
2019-05-02T05:47:07.466Z,58.00
2019-05-02T05:49:37.546Z,55.53
2019-05-02T05:52:08.084Z,54.30
2019-05-02T05:54:38.356Z,58.00
2019-05-02T05:57:07.637Z,56.10
2019-05-02T05:59:37.950Z,57.20
2019-05-02T06:02:12.683Z,55.90
2019-05-02T06:04:38.755Z,53.60
2019-05-02T06:07:07.475Z,54.40
2019-05-02T06:09:36.135Z,56.77
2019-05-02T06:12:04.717Z,54.67
2019-05-02T06:14:34.604Z,56.60
2019-05-02T06:17:03.595Z,56.47
2019-05-02T06:19:32.089Z,53.87
2019-05-02T06:22:00.649Z,53.47
2019-05-02T06:24:29.107Z,53.50
2019-05-02T06:26:57.723Z,52.97
2019-05-02T06:29:26.201Z,53.70
2019-05-02T06:31:54.679Z,52.87
2019-05-02T06:34:23.161Z,53.77
2019-05-02T06:36:51.798Z,53.73
2019-05-02T06:39:20.293Z,49.97
2019-05-02T06:41:52.025Z,53.57
2019-05-02T06:44:23.838Z,50.50
2019-05-02T06:46:49.347Z,53.40
2019-05-02T06:49:17.860Z,51.20
2019-05-02T06:51:46.463Z,49.77
2019-05-02T06:54:17.990Z,49.90
2019-05-02T06:56:47.943Z,46.67
2019-05-02T06:59:18.600Z,46.20
2019-05-02T07:01:46.201Z,46.23
2019-05-02T07:04:17.568Z,44.73
2019-05-02T07:06:58.219Z,48.73
2019-05-02T07:09:18.104Z,44.13
2019-05-02T07:11:57.044Z,36.20
2019-05-02T07:14:18.661Z,38.70
2019-05-02T07:17:05.773Z,38.70
2019-05-02T07:19:36.199Z,37.70
2019-05-02T07:22:04.998Z,41.33
2019-05-02T07:24:33.457Z,41.50
2019-05-02T07:27:02.574Z,40.90
2019-05-02T07:29:31.208Z,43.17
2019-05-02T07:31:59.789Z,43.60
2019-05-02T07:34:28.387Z,44.40
2019-05-02T07:36:56.944Z,45.70
2019-05-02T07:39:25.623Z,48.87
2019-05-02T07:41:54.202Z,47.57
2019-05-02T07:44:27.108Z,47.30
2019-05-02T07:46:56.925Z,50.87
2019-05-02T07:49:26.648Z,46.10
2019-05-02T07:51:57.508Z,48.30
2019-05-02T07:54:24.728Z,45.10
2019-05-02T07:56:54.675Z,45.20
2019-05-02T07:59:23.635Z,44.97
2019-05-02T08:01:53.644Z,46.10
2019-05-02T08:04:22.203Z,43.73
2019-05-02T08:06:50.805Z,43.10
2019-05-02T08:09:19.518Z,42.70
2019-05-02T08:11:48.058Z,41.77
2019-05-02T08:14:16.574Z,41.40
2019-05-02T08:16:45.049Z,39.37
2019-05-02T08:19:13.531Z,37.80
2019-05-02T08:21:42.013Z,37.23
2019-05-02T08:24:10.566Z,36.93
2019-05-02T08:26:46.985Z,38.07
2019-05-02T08:29:15.922Z,36.87
2019-05-02T08:31:44.441Z,35.87
2019-05-02T08:34:15.093Z,35.50
2019-05-02T08:36:43.216Z,33.50
2019-05-02T08:39:14.344Z,35.23
2019-05-02T08:41:41.992Z,36.50
2019-05-02T08:44:10.510Z,36.43
2019-05-02T08:46:39.012Z,36.70
2019-05-02T08:49:07.587Z,34.83
2019-05-02T08:51:36.043Z,35.70
2019-05-02T08:54:04.922Z,34.23
2019-05-02T08:56:34.950Z,33.67
2019-05-02T08:59:03.916Z,35.77
2019-05-02T09:01:35.290Z,37.37
2019-05-02T09:04:02.584Z,36.00
2019-05-02T09:06:31.130Z,35.20
2019-05-02T09:08:59.611Z,37.27
2019-05-02T09:11:28.209Z,35.57
2019-05-02T09:13:56.724Z,37.07
2019-05-02T09:16:28.463Z,36.80
2019-05-02T09:18:55.487Z,35.27
2019-05-02T09:21:34.213Z,37.80
2019-05-02T09:23:57.377Z,34.77
2019-05-02T09:26:35.288Z,37.30
2019-05-02T09:29:00.928Z,33.63
2019-05-02T09:31:26.501Z,35.57
2019-05-02T09:33:55.699Z,36.90
2019-05-02T09:36:24.369Z,39.67
2019-05-02T09:38:55.908Z,37.67
2019-05-02T09:41:26.825Z,38.27
2019-05-02T09:43:56.678Z,36.20
2019-05-02T09:46:25.220Z,38.17
2019-05-02T09:48:57.065Z,37.03
2019-05-02T09:51:23.955Z,36.80
2019-05-02T09:53:56.943Z,37.63
2019-05-02T09:56:22.813Z,49.33
2019-05-02T09:58:55.378Z,39.93
2019-05-02T10:01:25.581Z,38.03
2019-05-02T10:03:54.319Z,44.17
2019-05-02T10:06:23.055Z,40.40
2019-05-02T10:08:52.198Z,40.50
2019-05-02T10:11:22.422Z,41.00
2019-05-02T10:13:51.851Z,41.63
2019-05-02T10:16:23.565Z,37.80
2019-05-02T10:18:52.293Z,37.47
2019-05-02T10:21:22.795Z,38.30
2019-05-02T10:23:59.110Z,35.40
2019-05-02T10:26:24.552Z,34.00
2019-05-02T10:28:53.333Z,33.67
2019-05-02T10:31:22.257Z,35.03
2019-05-02T10:33:52.753Z,34.90
2019-05-02T10:36:23.836Z,36.70
2019-05-02T10:38:54.697Z,35.30
2019-05-02T10:41:22.462Z,34.53
2019-05-02T10:43:51.959Z,34.70
2019-05-02T10:46:27.819Z,33.80
2019-05-02T10:48:57.758Z,33.50
2019-05-02T10:51:27.844Z,34.17
2019-05-02T10:53:56.727Z,33.30
2019-05-02T10:56:25.410Z,33.13
2019-05-02T10:58:53.871Z,31.83
2019-05-02T11:01:39.070Z,29.30
2019-05-02T11:04:12.857Z,31.40
2019-05-02T11:06:42.574Z,28.57
2019-05-02T11:09:12.136Z,28.90
2019-05-02T11:11:42.516Z,30.43
2019-05-02T11:14:15.795Z,30.40
2019-05-02T11:16:48.732Z,28.60
2019-05-02T11:19:24.495Z,31.37
2019-05-02T11:21:58.282Z,28.40
2019-05-02T11:24:23.315Z,45.93
2019-05-02T11:26:52.865Z,35.37
2019-05-02T11:29:22.800Z,29.13
2019-05-02T11:31:52.195Z,29.40
2019-05-02T11:34:22.034Z,27.80
2019-05-02T11:36:52.705Z,28.00
2019-05-02T11:39:31.753Z,28.47
2019-05-02T11:41:52.725Z,33.40
2019-05-02T11:44:22.623Z,29.73
2019-05-02T11:46:52.161Z,27.80
2019-05-02T11:49:22.677Z,30.47
2019-05-02T11:51:52.605Z,27.90
2019-05-02T11:54:22.689Z,23.67
2019-05-02T11:56:53.449Z,23.50
2019-05-02T11:59:27.614Z,24.43
2019-05-02T12:02:00.177Z,19.37
2019-05-02T12:04:29.271Z,20.60
2019-05-02T12:07:01.282Z,18.40
2019-05-02T12:09:27.987Z,15.43
2019-05-02T12:11:56.774Z,18.73
2019-05-02T12:14:27.555Z,18.27
2019-05-02T12:16:55.560Z,15.60
2019-05-02T12:19:27.140Z,17.20
2019-05-02T12:21:56.454Z,17.10
2019-05-02T12:24:24.890Z,18.87
2019-05-02T12:26:53.351Z,21.80
2019-05-02T12:29:21.909Z,19.20
2019-05-02T12:31:52.703Z,18.10
2019-05-02T12:34:21.684Z,17.80
2019-05-02T12:36:52.106Z,20.80
2019-05-02T12:39:22.199Z,19.77
2019-05-02T12:41:53.140Z,23.17
2019-05-02T12:44:22.633Z,20.83
2019-05-02T12:46:52.082Z,20.63
2019-05-02T12:49:25.382Z,21.23
2019-05-02T12:51:52.448Z,18.33
2019-05-02T12:54:21.948Z,18.90
2019-05-02T12:56:52.884Z,19.03
2019-05-02T12:59:22.525Z,18.60
2019-05-02T13:01:51.827Z,20.47
2019-05-02T13:04:22.777Z,20.30
2019-05-02T13:06:52.857Z,20.53
2019-05-02T13:09:23.540Z,28.33
2019-05-02T13:11:53.888Z,23.97
2019-05-02T13:14:24.135Z,20.07
2019-05-02T13:17:00.729Z,17.50
2019-05-02T13:19:39.761Z,16.93
2019-05-02T13:22:15.804Z,18.83
2019-05-02T13:24:54.053Z,18.67
2019-05-02T13:27:22.725Z,19.37
2019-05-02T13:29:52.483Z,18.00
2019-05-02T13:32:24.505Z,17.20
2019-05-02T13:35:14.407Z,16.40
2019-05-02T13:37:46.099Z,17.20
2019-05-02T13:40:17.301Z,18.03
2019-05-02T13:43:02.951Z,24.77
2019-05-02T13:45:41.982Z,19.80
2019-05-02T13:48:12.197Z,25.43
2019-05-02T13:50:42.739Z,19.00
2019-05-02T13:53:12.147Z,19.47
2019-05-02T13:55:45.387Z,17.60
2019-05-02T13:58:14.188Z,17.63
2019-05-02T14:00:47.012Z,17.73
2019-05-02T14:03:16.220Z,17.20
2019-05-02T14:05:50.782Z,19.40
2019-05-02T14:08:36.883Z,22.80
2019-05-02T14:11:08.025Z,18.70
2019-05-02T14:13:37.148Z,18.60
2019-05-02T14:16:05.668Z,19.70
2019-05-02T14:18:34.224Z,17.07
2019-05-02T14:21:04.888Z,16.43
2019-05-02T14:23:33.400Z,18.60
2019-05-02T14:26:02.104Z,17.50
2019-05-02T14:28:35.995Z,17.93
2019-05-02T14:31:02.186Z,18.10
2019-05-02T14:33:33.104Z,22.93
2019-05-02T14:36:04.072Z,20.70
2019-05-02T14:38:33.006Z,18.80
2019-05-02T14:41:03.357Z,20.53
2019-05-02T14:43:53.233Z,20.67
2019-05-02T14:46:23.562Z,20.80
2019-05-02T14:48:52.558Z,20.23
2019-05-02T14:51:25.890Z,20.40
2019-05-02T14:53:52.624Z,20.80
2019-05-02T14:56:23.786Z,20.57
2019-05-02T14:58:52.836Z,22.47
2019-05-02T15:01:25.836Z,25.37
2019-05-02T15:03:52.939Z,29.47
2019-05-02T15:06:23.778Z,29.10
2019-05-02T15:08:52.589Z,33.13
2019-05-02T15:11:29.969Z,30.17
2019-05-02T15:16:23.070Z,28.57
2019-05-02T15:18:53.169Z,28.00
2019-05-02T15:21:22.935Z,27.50
2019-05-02T15:23:54.285Z,29.80
2019-05-02T15:26:26.279Z,29.20
2019-05-02T15:28:52.140Z,29.17
2019-05-02T15:31:33.732Z,31.47
2019-05-02T15:34:05.050Z,28.93
2019-05-02T15:36:37.056Z,32.17
2019-05-02T15:41:35.475Z,31.57
2019-05-02T15:44:04.097Z,30.43
2019-05-02T15:46:32.565Z,34.40
2019-05-02T15:49:01.894Z,34.00
2019-05-02T15:51:32.872Z,39.83
2019-05-02T15:54:09.019Z,39.10
2019-05-02T15:57:00.315Z,32.93
2019-05-02T15:59:37.465Z,37.83
2019-05-02T16:02:06.735Z,41.03
2019-05-02T16:04:36.882Z,30.30
2019-05-02T16:07:08.402Z,22.67
2019-05-02T16:09:57.238Z,18.63
2019-05-02T16:12:27.058Z,17.80
2019-05-02T16:14:55.448Z,22.87
2019-05-02T16:17:25.850Z,28.87
2019-05-02T16:19:58.705Z,30.60
2019-05-02T16:23:03.648Z,33.67
2019-05-02T16:25:34.003Z,35.07
2019-05-02T16:28:05.980Z,36.47
2019-05-02T16:30:32.481Z,37.60
2019-05-02T16:33:02.712Z,41.13
2019-05-02T16:35:33.124Z,41.50
2019-05-02T16:38:22.256Z,43.10
2019-05-02T16:40:52.490Z,42.80
2019-05-02T16:43:22.229Z,41.87
2019-05-02T16:45:52.569Z,43.17
2019-05-02T16:48:23.598Z,44.27
2019-05-02T16:50:51.348Z,45.50
2019-05-02T16:53:22.625Z,44.07
2019-05-02T16:56:09.337Z,42.37
2019-05-02T16:58:38.058Z,41.90
2019-05-02T17:01:08.272Z,39.83
2019-05-02T17:03:36.715Z,38.03
2019-05-02T17:06:05.251Z,38.57
2019-05-02T17:08:57.417Z,34.63
2019-05-02T17:11:27.774Z,35.90
2019-05-02T17:13:53.613Z,35.97
2019-05-02T17:16:22.190Z,34.00
2019-05-02T17:18:54.977Z,35.80
2019-05-02T17:21:22.150Z,33.50
2019-05-02T17:23:52.357Z,34.40
2019-05-02T17:26:22.878Z,33.90
2019-05-02T17:28:52.107Z,33.27
2019-05-02T17:31:22.936Z,33.17
2019-05-02T17:33:52.426Z,33.87
2019-05-02T17:36:28.315Z,31.80
2019-05-02T17:38:54.242Z,29.70
2019-05-02T17:41:22.623Z,31.87
2019-05-02T17:43:51.167Z,31.20
2019-05-02T17:46:21.964Z,29.47
2019-05-02T17:48:52.713Z,30.17
2019-05-02T17:51:33.873Z,27.40
2019-05-02T17:54:03.008Z,27.73
2019-05-02T17:56:32.584Z,29.20
2019-05-02T17:59:02.064Z,27.97
2019-05-02T18:01:35.028Z,27.60
2019-05-02T18:04:06.787Z,26.30
2019-05-02T18:06:35.498Z,24.33
2019-05-02T18:09:03.512Z,26.40
2019-05-02T18:11:36.433Z,25.63
2019-05-02T18:14:23.956Z,23.50
2019-05-02T18:17:12.740Z,23.57
2019-05-02T18:19:42.575Z,24.07
2019-05-02T18:22:23.237Z,22.97
2019-05-02T18:24:46.395Z,23.13
2019-05-02T18:27:13.174Z,23.30
2019-05-02T18:29:45.458Z,22.67
2019-05-02T18:32:12.872Z,23.13
2019-05-02T18:34:41.891Z,23.90
2019-05-02T18:37:10.591Z,23.87
2019-05-02T18:39:42.594Z,22.90
2019-05-02T18:42:16.628Z,23.70
2019-05-02T18:44:43.531Z,24.80
2019-05-02T18:47:19.651Z,23.73
2019-05-02T18:49:42.190Z,25.23
2019-05-02T18:52:11.704Z,23.90
2019-05-02T18:55:01.523Z,25.60
2019-05-02T18:57:30.027Z,24.70
2019-05-02T19:00:01.856Z,26.80
2019-05-02T19:02:34.085Z,25.57
2019-05-02T19:05:36.108Z,23.43
2019-05-02T19:08:04.920Z,24.50
2019-05-02T19:10:37.054Z,26.63
2019-05-02T19:13:06.064Z,24.47
2019-05-02T19:15:34.773Z,26.63
2019-05-02T19:18:05.412Z,26.17
2019-05-02T19:20:51.044Z,26.83
2019-05-02T19:23:10.053Z,26.80
2019-05-02T19:25:38.481Z,26.50
2019-05-02T19:28:09.119Z,26.40
2019-05-02T19:30:39.270Z,26.63
2019-05-02T19:33:08.134Z,25.00
2019-05-02T19:35:37.651Z,26.00
2019-05-02T19:38:08.501Z,25.43
2019-05-02T19:40:37.012Z,27.20
2019-05-02T19:43:07.645Z,27.20
2019-05-02T19:46:02.222Z,27.20
2019-05-02T19:48:33.010Z,28.00
2019-05-02T19:51:02.425Z,28.67
2019-05-02T19:53:33.745Z,27.83
2019-05-02T19:56:02.994Z,28.40
2019-05-02T19:58:36.750Z,29.17
2019-05-02T20:01:26.426Z,28.70
2019-05-02T20:03:56.716Z,29.20
2019-05-02T20:06:23.072Z,31.03
2019-05-02T20:08:52.566Z,31.97
2019-05-02T20:11:21.991Z,31.40
2019-05-02T20:13:50.596Z,32.80
2019-05-02T20:16:23.764Z,31.50
2019-05-02T20:18:52.610Z,32.77
2019-05-02T20:21:28.933Z,30.10
2019-05-02T20:23:57.406Z,28.40
2019-05-02T20:26:25.981Z,26.93
2019-05-02T20:28:54.456Z,25.07
2019-05-02T20:31:22.967Z,25.37
2019-05-02T20:36:27.716Z,21.93
2019-05-02T20:39:51.218Z,23.03
2019-05-02T20:42:19.669Z,23.07
2019-05-02T20:44:48.134Z,23.73
2019-05-02T20:47:21.740Z,25.40
2019-05-02T20:49:51.812Z,25.27
2019-05-02T20:52:21.726Z,24.13
2019-05-02T20:54:52.197Z,25.67
2019-05-02T20:57:20.441Z,25.10
2019-05-02T20:59:48.956Z,24.93
2019-05-02T21:02:17.396Z,23.40
2019-05-02T21:05:09.368Z,24.90
2019-05-02T21:07:42.558Z,25.60
2019-05-02T21:10:13.072Z,25.10
2019-05-02T21:12:41.928Z,24.00
2019-05-02T21:15:29.796Z,26.00
2019-05-02T21:17:58.333Z,25.53
2019-05-02T21:20:28.162Z,25.50
2019-05-02T21:22:56.616Z,24.53
2019-05-02T21:25:25.237Z,27.50
2019-05-02T21:27:53.696Z,26.03
2019-05-02T21:30:24.552Z,25.47
2019-05-02T21:32:53.014Z,27.03
2019-05-02T21:35:22.372Z,25.77
2019-05-02T21:38:28.332Z,25.63
2019-05-02T21:40:56.948Z,24.30
2019-05-02T21:43:44.476Z,21.43
2019-05-02T21:46:12.984Z,19.10
2019-05-02T21:48:42.010Z,16.30
2019-05-02T21:51:17.898Z,15.50
2019-05-02T21:53:56.043Z,15.13
2019-05-02T21:56:25.592Z,16.23
2019-05-02T21:59:07.447Z,15.57
2019-05-02T22:01:42.077Z,14.87
2019-05-02T22:04:12.908Z,15.37
2019-05-02T22:06:42.754Z,16.07
2019-05-02T22:09:12.347Z,15.87
2019-05-02T22:11:42.882Z,14.43
2019-05-02T22:14:13.299Z,14.43
2019-05-02T22:16:54.083Z,14.00
2019-05-02T22:19:22.549Z,14.33
2019-05-02T22:21:52.532Z,13.13
2019-05-02T22:24:21.552Z,12.40
2019-05-02T22:26:50.017Z,12.60
2019-05-02T22:29:58.188Z,11.40
2019-05-02T22:32:26.619Z,12.13
2019-05-02T22:35:33.958Z,11.27
2019-05-02T22:38:04.030Z,11.03
2019-05-02T22:40:32.470Z,13.47
2019-05-02T22:43:01.918Z,13.03
2019-05-02T22:45:32.243Z,13.90
2019-05-02T22:48:02.525Z,14.93
2019-05-02T22:50:32.536Z,14.57
2019-05-02T22:53:01.084Z,14.40
2019-05-02T22:55:29.523Z,13.37
2019-05-02T22:57:57.977Z,14.60
2019-05-02T23:00:27.368Z,13.67
2019-05-02T23:02:55.849Z,12.80
2019-05-02T23:05:24.372Z,13.47
2019-05-02T23:07:52.838Z,13.27
2019-05-02T23:10:57.229Z,13.20
2019-05-02T23:13:25.747Z,14.50
2019-05-02T23:15:54.197Z,14.40
2019-05-02T23:18:22.830Z,14.17
2019-05-02T23:20:52.619Z,15.80
2019-05-02T23:23:21.553Z,14.90
2019-05-02T23:25:53.084Z,14.37
2019-05-02T23:28:28.925Z,14.23
2019-05-02T23:33:51.732Z,16.43
2019-05-02T23:36:20.557Z,14.83
2019-05-02T23:38:49.047Z,14.40
2019-05-02T23:41:17.490Z,13.50
2019-05-02T23:43:45.925Z,12.20
2019-05-02T23:46:14.372Z,14.23
2019-05-02T23:48:42.830Z,13.50
2019-05-02T23:51:12.151Z,12.47
2019-05-02T23:53:42.250Z,14.50
2019-05-02T23:56:13.018Z,13.20
2019-05-02T23:58:42.626Z,11.97
